Time;durP1;ratioP1;P1;durP2;ratioP2;P2;SDS_P1;SDS_P2;PMS_P1;PMS_P2;Temp;Humidity;BMP_temperature;BMP_pressure;BME280_temperature;BME280_humidity;BME280_pressure;Samples;Min_cycle;Max_cycle;Signal;HPM_P1;HPM_P2
2020/12/05 00:01:50;;;;;;;9.95;3.22;;;15.00;77.00;;;;;;5112008;28;20039;-73
2020/12/05 00:04:54;;;;;;;11.60;3.22;;;14.90;78.80;;;;;;5111925;28;20043;-73
2020/12/05 00:07:58;;;;;;;8.30;2.28;;;14.80;80.40;;;;;;5111943;28;20043;-74
2020/12/05 00:11:02;;;;;;;9.60;2.75;;;14.70;81.30;;;;;;5112145;28;20042;-73
2020/12/05 00:14:05;;;;;;;8.98;1.88;;;14.60;80.10;;;;;;5112117;28;20046;-73
2020/12/05 00:17:11;;;;;;;15.35;1.98;;;14.60;80.30;;;;;;5099492;28;20510;-74
2020/12/05 00:20:15;;;;;;;9.77;2.38;;;14.60;81.30;;;;;;5111973;28;20517;-73
2020/12/05 00:23:19;;;;;;;10.52;2.20;;;14.60;80.10;;;;;;5111714;28;20051;-73
2020/12/05 00:26:24;;;;;;;7.63;2.63;;;14.60;79.90;;;;;;5111551;28;20058;-73
2020/12/05 00:29:28;;;;;;;7.53;3.00;;;14.60;80.10;;;;;;5111014;28;20042;-73
2020/12/05 00:32:32;;;;;;;8.82;1.52;;;14.60;81.10;;;;;;5110976;28;20039;-73
2020/12/05 00:35:36;;;;;;;9.20;1.55;;;14.70;78.50;;;;;;5111778;28;20043;-73
2020/12/05 00:38:40;;;;;;;9.70;2.50;;;14.80;77.20;;;;;;5112190;28;20039;-73
2020/12/05 00:41:44;;;;;;;8.93;1.95;;;14.70;79.40;;;;;;5111573;28;20042;-74
2020/12/05 00:44:48;;;;;;;4.95;1.90;;;14.70;79.70;;;;;;5110488;28;20066;-73
2020/12/05 00:47:53;;;;;;;7.03;1.13;;;14.60;79.10;;;;;;5110536;28;20395;-73
2020/12/05 00:50:58;;;;;;;16.25;1.60;;;14.70;77.60;;;;;;5110604;28;20047;-73
2020/12/05 00:54:03;;;;;;;13.27;1.90;;;14.80;75.10;;;;;;5111657;28;20509;-73
2020/12/05 00:57:07;;;;;;;9.07;1.60;;;15.00;75.30;;;;;;5110806;28;20113;-73
2020/12/05 01:00:12;;;;;;;5.10;1.48;;;15.00;75.80;;;;;;5111651;28;20109;-73
2020/12/05 01:03:16;;;;;;;11.45;1.30;;;15.00;75.70;;;;;;5111253;28;20521;-73
2020/12/05 01:06:20;;;;;;;10.85;1.27;;;15.00;75.50;;;;;;5110509;28;20042;-73
2020/12/05 01:09:24;;;;;;;5.00;1.13;;;15.00;75.60;;;;;;5111275;28;20483;-73
2020/12/05 01:12:29;;;;;;;10.95;1.35;;;15.00;75.40;;;;;;5110353;28;20399;-73
2020/12/05 01:15:34;;;;;;;7.50;1.48;;;15.00;74.60;;;;;;5111176;28;20066;-73
2020/12/05 01:18:38;;;;;;;5.57;1.27;;;15.00;74.60;;;;;;5111486;28;20039;-73
2020/12/05 01:21:46;;;;;;;6.13;1.20;;;15.10;74.20;;;;;;5110492;28;20054;-73
2020/12/05 01:24:50;;;;;;;6.30;1.23;;;15.10;74.30;;;;;;5111210;28;20054;-73
2020/12/05 01:27:54;;;;;;;10.00;1.48;;;15.10;74.00;;;;;;5111365;28;20047;-73
2020/12/05 01:30:59;;;;;;;5.22;1.10;;;15.10;72.50;;;;;;5111389;28;20042;-73
2020/12/05 01:34:04;;;;;;;8.05;1.23;;;15.10;71.80;;;;;;5111280;28;20051;-73
2020/12/05 01:37:08;;;;;;;4.47;1.10;;;15.10;72.10;;;;;;5110851;28;20046;-73
2020/12/05 01:40:12;;;;;;;3.17;0.90;;;15.10;72.20;;;;;;5111205;28;20054;-73
2020/12/05 01:43:16;;;;;;;8.95;1.60;;;15.10;71.30;;;;;;5109816;28;20046;-73
2020/12/05 01:46:31;;;;;;;8.27;1.65;;;15.20;71.20;;;;;;5110992;28;20047;-74
2020/12/05 01:49:36;;;;;;;5.22;0.90;;;15.20;71.60;;;;;;5111112;28;20062;-73
2020/12/05 01:52:40;;;;;;;4.80;1.17;;;15.20;72.80;;;;;;5111138;28;20506;-72
2020/12/05 01:55:46;;;;;;;12.65;1.70;;;15.10;72.70;;;;;;5110837;28;20149;-72
2020/12/05 01:58:50;;;;;;;9.38;1.73;;;15.10;73.30;;;;;;5110996;28;20043;-72
2020/12/05 02:02:03;;;;;;;9.80;1.70;;;15.10;73.70;;;;;;5111994;28;20043;-72
2020/12/05 02:05:17;;;;;;;5.45;1.60;;;15.00;73.70;;;;;;5114483;28;20051;-72
2020/12/05 02:08:29;;;;;;;7.20;1.65;;;14.90;75.10;;;;;;5114433;28;20043;-72
2020/12/05 02:11:40;;;;;;;6.70;1.48;;;14.90;77.30;;;;;;5114437;28;20042;-72
2020/12/05 02:14:47;;;;;;;11.43;2.23;;;14.70;77.10;;;;;;5114470;28;20042;-72
2020/12/05 02:18:08;;;;;;;8.07;1.60;;;14.70;76.90;;;;;;5114369;28;20058;-72
2020/12/05 02:21:14;;;;;;;6.47;1.77;;;14.70;78.80;;;;;;5114085;28;20042;-72
2020/12/05 02:24:18;;;;;;;10.68;2.25;;;14.60;81.50;;;;;;5113773;28;20062;-72
2020/12/05 02:27:24;;;;;;;9.55;2.00;;;14.60;82.00;;;;;;5113447;28;20509;-72
2020/12/05 02:30:32;;;;;;;9.43;2.42;;;14.50;82.90;;;;;;5114026;28;20399;-72
2020/12/05 02:33:36;;;;;;;5.95;2.20;;;14.50;83.30;;;;;;5114142;28;20042;-71
2020/12/05 02:36:41;;;;;;;8.93;1.95;;;14.40;83.70;;;;;;5113883;28;20051;-72
2020/12/05 02:39:45;;;;;;;9.27;1.77;;;14.30;83.60;;;;;;5113687;28;20035;-72
2020/12/05 02:42:50;;;;;;;6.07;2.28;;;14.30;84.00;;;;;;5113772;28;20047;-72
2020/12/05 02:45:55;;;;;;;7.32;1.80;;;14.30;84.60;;;;;;5113707;28;20051;-72
2020/12/05 02:49:01;;;;;;;7.22;2.15;;;14.30;84.80;;;;;;5113601;28;20125;-72
2020/12/05 02:52:05;;;;;;;6.47;1.92;;;14.20;84.90;;;;;;5113700;28;20035;-72
2020/12/05 02:55:09;;;;;;;9.95;2.22;;;14.20;85.10;;;;;;5112607;28;20509;-72
2020/12/05 02:58:13;;;;;;;7.53;2.10;;;14.20;85.30;;;;;;5112700;28;20046;-72
2020/12/05 03:01:17;;;;;;;11.32;2.13;;;14.10;85.40;;;;;;5100930;28;20046;-72
2020/12/05 03:04:21;;;;;;;17.02;2.47;;;14.10;85.60;;;;;;5113068;28;20054;-72
2020/12/05 03:07:25;;;;;;;9.48;2.45;;;14.10;85.70;;;;;;5112474;28;20039;-72
2020/12/05 03:10:29;;;;;;;10.85;2.60;;;14.10;85.70;;;;;;5113021;28;20051;-72
2020/12/05 03:13:33;;;;;;;6.68;2.20;;;14.10;85.80;;;;;;5113054;28;20043;-73
2020/12/05 03:16:37;;;;;;;7.32;2.13;;;14.00;85.80;;;;;;5112285;28;20047;-73
2020/12/05 03:19:40;;;;;;;7.03;1.88;;;14.00;85.70;;;;;;5112913;28;20567;-73
2020/12/05 03:22:44;;;;;;;6.80;1.77;;;14.00;85.30;;;;;;5112943;28;20047;-73
2020/12/05 03:25:48;;;;;;;6.85;1.77;;;14.00;85.20;;;;;;5112919;28;20050;-73
2020/12/05 03:28:55;;;;;;;7.43;1.98;;;14.00;84.70;;;;;;5112062;28;20043;-73
2020/12/05 03:32:02;;;;;;;8.35;2.00;;;14.10;84.70;;;;;;5112817;28;20526;-72
2020/12/05 03:35:07;;;;;;;6.28;1.80;;;14.10;84.80;;;;;;5112820;28;20061;-72
2020/12/05 03:38:10;;;;;;;10.27;1.80;;;14.00;84.80;;;;;;5112792;28;20584;-73
2020/12/05 03:41:14;;;;;;;8.80;1.73;;;14.00;84.90;;;;;;5112634;28;20070;-73
2020/12/05 03:44:19;;;;;;;10.00;1.98;;;14.00;85.00;;;;;;5112223;28;20084;-73
2020/12/05 03:47:23;;;;;;;5.53;2.40;;;14.00;85.00;;;;;;5112444;28;20046;-73
2020/12/05 03:50:27;;;;;;;7.90;1.90;;;14.00;85.10;;;;;;5112205;28;20404;-73
2020/12/05 03:53:31;;;;;;;12.85;2.65;;;14.00;85.50;;;;;;5112481;28;20046;-73
2020/12/05 03:56:34;;;;;;;5.82;1.60;;;14.00;85.00;;;;;;5112494;28;20514;-73
2020/12/05 03:59:38;;;;;;;10.82;2.22;;;14.00;85.00;;;;;;5112343;28;20042;-73
2020/12/05 04:02:42;;;;;;;13.10;1.95;;;14.00;85.00;;;;;;5111206;28;20074;-73
2020/12/05 04:05:46;;;;;;;10.23;2.55;;;14.00;85.10;;;;;;5112240;28;20086;-73
2020/12/05 04:08:50;;;;;;;9.20;2.10;;;14.00;85.10;;;;;;5112366;28;20054;-73
2020/12/05 04:11:54;;;;;;;11.77;2.15;;;14.00;85.30;;;;;;5112277;28;20038;-73
2020/12/05 04:14:58;;;;;;;6.93;2.10;;;14.00;85.40;;;;;;5111897;28;20046;-73
2020/12/05 04:18:02;;;;;;;6.82;1.90;;;14.00;85.40;;;;;;5112219;28;20205;-73
2020/12/05 04:21:06;;;;;;;9.85;2.33;;;14.00;85.40;;;;;;5112117;28;20506;-73
2020/12/05 04:24:10;;;;;;;5.75;1.80;;;14.00;85.30;;;;;;5111135;28;20054;-73
2020/12/05 04:27:14;;;;;;;10.63;2.10;;;14.00;85.30;;;;;;5112359;28;20058;-73
2020/12/05 04:30:19;;;;;;;8.60;1.90;;;14.10;85.30;;;;;;5111920;28;20046;-72
2020/12/05 04:33:23;;;;;;;7.75;2.00;;;14.10;85.40;;;;;;5111097;28;20039;-72
2020/12/05 04:36:27;;;;;;;13.55;2.00;;;14.10;85.50;;;;;;5111685;28;20039;-71
2020/12/05 04:39:30;;;;;;;12.27;2.28;;;14.10;85.60;;;;;;5111585;28;20427;-72
2020/12/05 04:42:45;;;;;;;8.60;2.13;;;14.10;85.60;;;;;;5111672;28;20051;-72
2020/12/05 04:45:51;;;;;;;7.57;1.80;;;14.10;85.70;;;;;;5111642;28;20383;-71
2020/12/05 04:48:56;;;;;;;12.05;2.05;;;14.10;85.70;;;;;;5110318;28;20059;-72
2020/12/05 04:52:23;;;;;;;12.63;2.30;;;14.10;85.50;;;;;;5110434;28;20043;-72
2020/12/05 04:55:30;;;;;;;9.15;1.80;;;14.10;85.10;;;;;;5111542;28;20066;-72
2020/12/05 04:58:38;;;;;;;5.93;1.60;;;14.10;84.70;;;;;;5110682;28;20066;-72
2020/12/05 05:01:42;;;;;;;6.95;1.85;;;14.20;84.60;;;;;;5111585;28;20359;-72
2020/12/05 05:04:47;;;;;;;7.25;1.77;;;14.20;84.50;;;;;;5098670;28;20058;-73
2020/12/05 05:07:53;;;;;;;9.75;1.73;;;14.20;84.30;;;;;;5110688;28;20046;-72
2020/12/05 05:11:12;;;;;;;13.18;3.00;;;14.20;84.20;;;;;;5111507;28;20391;-72
2020/12/05 05:14:16;;;;;;;11.38;1.75;;;14.20;84.40;;;;;;5111167;28;20102;-72
2020/12/05 05:17:20;;;;;;;7.50;2.65;;;14.20;84.40;;;;;;5111223;28;20580;-72
2020/12/05 05:20:25;;;;;;;9.77;1.98;;;14.20;84.30;;;;;;5111150;28;20094;-72
2020/12/05 05:23:29;;;;;;;8.35;2.00;;;14.20;84.10;;;;;;5111054;28;20051;-72
2020/12/05 05:26:33;;;;;;;5.72;1.73;;;14.30;84.00;;;;;;5110514;28;20046;-72
2020/12/05 05:29:41;;;;;;;8.65;1.80;;;14.30;83.90;;;;;;5111187;28;20047;-72
2020/12/05 05:32:48;;;;;;;6.93;1.73;;;14.30;84.00;;;;;;5111262;28;20043;-72
2020/12/05 05:35:53;;;;;;;7.22;1.90;;;14.30;84.20;;;;;;5110304;28;20042;-72
2020/12/05 05:39:00;;;;;;;8.48;1.98;;;14.30;84.40;;;;;;5115037;28;20494;-73
2020/12/05 05:42:03;;;;;;;10.30;2.10;;;14.20;84.40;;;;;;5115014;28;20046;-72
2020/12/05 05:45:18;;;;;;;7.57;1.77;;;14.20;84.30;;;;;;5114039;28;20464;-72
2020/12/05 05:48:22;;;;;;;8.77;2.03;;;14.20;84.00;;;;;;5114635;28;20054;-72
2020/12/05 05:51:46;;;;;;;10.10;1.90;;;14.20;84.00;;;;;;5114945;28;20046;-72
2020/12/05 05:54:54;;;;;;;12.35;1.90;;;14.20;83.80;;;;;;5114754;28;20066;-73
2020/12/05 05:57:59;;;;;;;12.88;2.47;;;14.20;83.80;;;;;;5113960;28;20513;-72
2020/12/05 06:01:03;;;;;;;9.93;2.13;;;14.20;83.70;;;;;;5114399;28;20039;-73
2020/12/05 06:04:17;;;;;;;14.60;2.08;;;14.20;83.80;;;;;;5113356;28;20047;-72
2020/12/05 06:07:25;;;;;;;12.95;2.65;;;14.20;83.80;;;;;;5114353;28;20046;-72
2020/12/05 06:10:29;;;;;;;7.22;2.08;;;14.20;83.80;;;;;;5113645;28;20050;-72
2020/12/05 06:13:34;;;;;;;8.77;2.00;;;14.20;83.80;;;;;;5114547;28;20043;-71
2020/12/05 06:16:40;;;;;;;19.92;2.55;;;14.20;83.70;;;;;;5113571;28;20042;-71
2020/12/05 06:19:50;;;;;;;13.43;2.78;;;14.20;83.40;;;;;;5114336;28;20039;-72
2020/12/05 06:23:02;;;;;;;13.75;2.63;;;14.30;83.20;;;;;;5114241;28;20050;-72
2020/12/05 06:26:17;;;;;;;7.95;1.65;;;14.30;83.20;;;;;;5113928;28;20403;-72
2020/12/05 06:29:22;;;;;;;7.28;1.90;;;14.30;83.00;;;;;;5113802;28;20493;-73
2020/12/05 06:32:42;;;;;;;10.07;2.28;;;14.30;83.10;;;;;;5114046;28;20046;-74
2020/12/05 06:35:46;;;;;;;8.60;2.22;;;14.30;82.60;;;;;;5113157;28;20046;-73
2020/12/05 06:39:09;;;;;;;12.50;2.30;;;14.30;82.40;;;;;;5113588;28;20042;-73
2020/12/05 06:42:19;;;;;;;10.30;3.05;;;14.40;82.30;;;;;;5113848;28;20071;-73
2020/12/05 06:45:27;;;;;;;10.57;2.70;;;14.40;82.30;;;;;;5113362;28;20407;-73
2020/12/05 06:48:32;;;;;;;9.52;1.65;;;14.40;82.20;;;;;;5112143;28;20447;-71
2020/12/05 06:51:36;;;;;;;8.00;1.70;;;14.50;82.30;;;;;;5101233;28;20047;-74
2020/12/05 06:54:56;;;;;;;10.55;2.20;;;14.50;82.50;;;;;;5113395;28;20054;-71
2020/12/05 06:58:05;;;;;;;10.10;1.63;;;14.50;82.40;;;;;;5113674;28;20043;-72
2020/12/05 07:01:26;;;;;;;13.02;2.70;;;14.50;82.20;;;;;;5113435;28;20047;-72
2020/12/05 07:04:30;;;;;;;5.15;1.80;;;14.50;82.20;;;;;;5112423;28;20074;-72
2020/12/05 07:07:34;;;;;;;12.02;2.30;;;14.50;82.30;;;;;;5112721;28;20035;-71
2020/12/05 07:10:59;;;;;;;5.80;1.50;;;14.50;82.30;;;;;;5112547;28;20391;-72
2020/12/05 07:14:03;;;;;;;8.82;2.70;;;14.60;81.90;;;;;;5112897;28;20502;-73
2020/12/05 07:17:22;;;;;;;20.08;3.40;;;14.60;81.80;;;;;;5113189;28;20050;-71
2020/12/05 07:20:26;;;;;;;11.43;3.22;;;14.60;81.80;;;;;;5112116;28;20522;-74
2020/12/05 07:23:31;;;;;;;9.70;2.65;;;14.70;82.60;;;;;;5112070;28;20458;-78
2020/12/05 07:26:35;;;;;;;9.90;2.33;;;14.70;82.20;;;;;;5113167;28;20046;-78
2020/12/05 07:29:39;;;;;;;14.30;2.78;;;14.70;82.30;;;;;;5100168;28;20062;-72
2020/12/05 07:32:44;;;;;;;9.75;2.55;;;14.70;82.30;;;;;;5112950;28;20038;-75
2020/12/05 07:36:00;;;;;;;10.50;2.50;;;14.70;81.90;;;;;;5113127;28;20397;-86
2020/12/05 07:39:03;;;;;;;15.48;3.17;;;14.80;81.90;;;;;;5112081;28;20055;-82
2020/12/05 07:42:09;;;;;;;8.13;2.72;;;14.80;81.70;;;;;;5102039;28;20043;-79
2020/12/05 07:45:13;;;;;;;9.38;3.03;;;14.80;81.70;;;;;;5111495;28;20066;-76
2020/12/05 07:48:20;;;;;;;12.50;2.90;;;14.90;82.00;;;;;;5099593;28;20054;-78
2020/12/05 07:51:24;;;;;;;9.70;2.60;;;15.00;81.60;;;;;;5112536;28;20042;-76
2020/12/05 07:54:29;;;;;;;10.95;2.60;;;15.10;81.50;;;;;;5112534;28;20042;-76
2020/12/05 07:57:35;;;;;;;13.23;3.78;;;15.20;81.10;;;;;;5112326;28;20157;-74
2020/12/05 08:00:39;;;;;;;7.70;3.38;;;15.30;80.00;;;;;;5110690;28;20390;-77
2020/12/05 08:04:22;;;;;;;13.77;3.65;;;15.40;80.20;;;;;;5099791;28;20529;-75
2020/12/05 08:07:42;;;;;;;9.85;3.30;;;15.50;80.20;;;;;;5111161;28;20039;-78
2020/12/05 08:10:46;;;;;;;12.27;3.42;;;15.60;80.00;;;;;;5112145;28;20051;-73
2020/12/05 08:13:51;;;;;;;10.95;4.18;;;15.70;79.60;;;;;;5112503;28;20062;-80
2020/12/05 08:16:56;;;;;;;12.85;2.50;;;15.80;79.50;;;;;;5112384;28;20044;-77
2020/12/05 08:20:05;;;;;;;11.43;2.70;;;15.90;79.30;;;;;;5112239;28;20525;-76
2020/12/05 08:23:30;;;;;;;12.93;6.65;;;16.00;78.40;;;;;;5111962;28;20105;-79
2020/12/05 08:26:35;;;;;;;14.65;2.13;;;16.20;77.90;;;;;;5111684;28;20141;-81
2020/12/05 08:29:39;;;;;;;12.57;2.20;;;16.20;77.40;;;;;;5111030;28;20042;-72
2020/12/05 08:32:45;;;;;;;14.65;2.42;;;16.20;77.30;;;;;;5111713;28;20621;-78
2020/12/05 08:35:49;;;;;;;12.00;2.38;;;16.10;77.50;;;;;;5111943;28;20050;-79
2020/12/05 08:38:57;;;;;;;12.23;2.33;;;16.10;77.60;;;;;;5110735;28;20054;-73
2020/12/05 08:42:05;;;;;;;11.55;2.47;;;16.30;74.60;;;;;;5111628;28;20193;-81
2020/12/05 08:45:20;;;;;;;14.93;2.55;;;16.70;73.80;;;;;;5110548;28;20074;-80
2020/12/05 08:48:24;;;;;;;8.80;2.63;;;17.00;74.10;;;;;;5110502;28;20051;-76
2020/12/05 08:51:31;;;;;;;9.57;2.10;;;17.20;70.80;;;;;;5111731;28;20039;-72
2020/12/05 08:54:49;;;;;;;11.15;2.13;;;17.30;70.40;;;;;;5111537;28;20043;-74
2020/12/05 08:57:58;;;;;;;8.65;1.90;;;17.50;70.40;;;;;;5110932;28;20130;-73
2020/12/05 09:01:02;;;;;;;10.43;2.22;;;17.60;67.60;;;;;;5110855;28;20197;-83
2020/12/05 09:04:07;;;;;;;10.98;3.17;;;17.80;69.60;;;;;;5111224;28;20046;-75
2020/12/05 09:07:13;;;;;;;14.45;2.20;;;18.00;69.90;;;;;;5110845;28;20039;-73
2020/12/05 09:10:18;;;;;;;12.68;2.15;;;18.20;67.30;;;;;;5111411;28;20050;-76
2020/12/05 09:13:23;;;;;;;12.75;2.30;;;18.30;66.90;;;;;;5114895;28;20046;-80
2020/12/05 09:16:34;;;;;;;16.95;2.55;;;18.50;66.50;;;;;;5114645;28;20054;-76
2020/12/05 09:19:38;;;;;;;7.22;2.47;;;18.70;67.20;;;;;;5115500;28;20510;-83
2020/12/05 09:22:47;;;;;;;11.93;2.72;;;18.90;66.20;;;;;;5114222;28;20435;-73
2020/12/05 09:26:01;;;;;;;10.68;3.05;;;19.10;66.50;;;;;;5115014;28;20059;-77
2020/12/05 09:29:05;;;;;;;13.45;2.80;;;19.30;67.10;;;;;;5115077;28;20109;-74
2020/12/05 09:32:09;;;;;;;14.82;3.33;;;19.40;66.10;;;;;;5115017;28;20054;-73
2020/12/05 09:35:15;;;;;;;11.95;4.18;;;19.50;64.80;;;;;;5115079;28;20047;-74
2020/12/05 09:38:20;;;;;;;14.73;4.20;;;19.40;66.90;;;;;;5114972;28;20039;-76
2020/12/05 09:41:23;;;;;;;17.73;4.38;;;19.50;66.90;;;;;;5115006;28;20042;-76
2020/12/05 09:44:27;;;;;;;9.63;3.05;;;19.60;67.00;;;;;;5114746;28;20070;-72
2020/12/05 09:47:32;;;;;;;9.45;2.90;;;19.60;66.20;;;;;;5114720;28;20058;-69
2020/12/05 09:50:36;;;;;;;15.02;3.20;;;19.70;65.40;;;;;;5114712;28;20068;-80
2020/12/05 09:53:39;;;;;;;14.60;3.20;;;19.80;64.80;;;;;;5102196;28;20047;-72
2020/12/05 09:56:43;;;;;;;14.00;3.55;;;19.90;65.60;;;;;;5100481;28;20054;-72
2020/12/05 09:59:47;;;;;;;14.68;2.95;;;19.80;66.80;;;;;;5114683;28;20039;-73
2020/12/05 10:02:51;;;;;;;12.00;3.22;;;20.00;66.70;;;;;;5113235;28;20054;-75
2020/12/05 10:05:55;;;;;;;10.73;3.40;;;20.10;66.60;;;;;;5113593;28;20042;-75
2020/12/05 10:08:59;;;;;;;12.57;3.20;;;20.20;66.50;;;;;;5114423;28;20054;-74
2020/12/05 10:12:03;;;;;;;11.48;2.33;;;20.30;65.30;;;;;;5114218;28;20047;-75
2020/12/05 10:15:07;;;;;;;11.63;3.72;;;20.20;65.70;;;;;;5112564;28;20047;-73
2020/12/05 10:18:11;;;;;;;14.95;3.42;;;20.30;65.40;;;;;;5113244;28;20050;-75
2020/12/05 10:21:15;;;;;;;14.10;3.00;;;20.00;66.10;;;;;;5114025;28;20046;-71
2020/12/05 10:24:20;;;;;;;21.35;3.53;;;19.80;66.30;;;;;;5113363;28;20059;-78
2020/12/05 10:27:24;;;;;;;15.80;2.70;;;19.80;66.90;;;;;;5112389;28;20042;-75
2020/12/05 10:30:28;;;;;;;18.40;2.60;;;19.70;66.70;;;;;;5112589;28;20046;-81
2020/12/05 10:33:32;;;;;;;13.13;3.30;;;19.70;67.30;;;;;;5112871;28;20102;-75
2020/12/05 10:36:36;;;;;;;14.45;3.20;;;19.80;67.30;;;;;;5112978;28;20501;-75
2020/12/05 10:39:40;;;;;;;15.73;3.15;;;19.80;67.10;;;;;;5112571;28;20038;-72
2020/12/05 10:42:44;;;;;;;19.20;3.90;;;19.50;68.20;;;;;;5112653;28;20047;-73
2020/12/05 10:45:48;;;;;;;10.77;2.90;;;19.20;69.30;;;;;;5112766;28;20047;-72
2020/12/05 10:48:52;;;;;;;9.25;2.88;;;19.20;69.90;;;;;;5113106;28;20055;-72
2020/12/05 10:51:56;;;;;;;14.20;2.60;;;19.20;69.40;;;;;;5112913;28;20046;-72
2020/12/05 10:55:00;;;;;;;10.77;2.97;;;19.20;68.90;;;;;;5112865;28;20042;-72
2020/12/05 10:58:04;;;;;;;10.88;2.55;;;19.30;69.90;;;;;;5113693;28;20039;-73
2020/12/05 11:01:08;;;;;;;11.88;2.50;;;19.30;66.90;;;;;;5113347;28;20066;-72
2020/12/05 11:04:12;;;;;;;9.30;1.70;;;19.20;65.30;;;;;;5100507;28;20054;-72
2020/12/05 11:07:16;;;;;;;11.65;1.63;;;19.20;64.80;;;;;;5112702;28;20521;-72
2020/12/05 11:10:20;;;;;;;9.25;1.70;;;19.10;63.00;;;;;;5113001;28;20533;-72
2020/12/05 11:13:23;;;;;;;8.40;1.90;;;19.10;62.50;;;;;;5113185;28;20072;-72
2020/12/05 11:16:27;;;;;;;8.07;1.55;;;19.00;62.80;;;;;;5112486;28;20042;-72
2020/12/05 11:19:31;;;;;;;12.27;2.00;;;18.90;61.70;;;;;;5113053;28;20047;-72
2020/12/05 11:22:35;;;;;;;5.72;1.75;;;18.90;61.80;;;;;;5112720;28;20046;-72
2020/12/05 11:25:38;;;;;;;11.32;1.77;;;19.00;63.20;;;;;;5112435;28;20042;-72
2020/12/05 11:28:42;;;;;;;7.47;1.63;;;19.00;62.80;;;;;;5111947;28;20398;-72
2020/12/05 11:31:46;;;;;;;8.90;1.65;;;19.10;63.40;;;;;;5112468;28;20035;-72
2020/12/05 11:34:50;;;;;;;12.23;1.92;;;19.10;63.60;;;;;;5112297;28;20043;-72
2020/12/05 11:37:54;;;;;;;6.95;2.13;;;19.00;63.40;;;;;;5112516;28;20054;-72
2020/12/05 11:40:58;;;;;;;12.75;2.60;;;18.90;63.70;;;;;;5112395;28;20038;-72
2020/12/05 11:44:03;;;;;;;11.82;2.08;;;18.90;64.80;;;;;;5112252;28;20418;-70
2020/12/05 11:47:07;;;;;;;12.93;2.70;;;18.80;64.60;;;;;;5111529;28;20047;-71
2020/12/05 11:50:11;;;;;;;12.32;2.35;;;18.80;66.00;;;;;;5112274;28;20042;-72
2020/12/05 11:53:15;;;;;;;15.55;2.53;;;18.70;68.00;;;;;;5112565;28;20046;-71
2020/12/05 11:56:20;;;;;;;9.45;2.38;;;18.70;69.90;;;;;;5112017;28;20038;-71
2020/12/05 11:59:24;;;;;;;18.17;2.60;;;18.70;69.70;;;;;;5112238;28;20529;-71
2020/12/05 12:02:28;;;;;;;17.45;2.78;;;18.70;68.60;;;;;;5112079;28;20054;-70
2020/12/05 12:05:33;;;;;;;8.27;2.30;;;18.70;66.50;;;;;;5110645;28;20414;-70
2020/12/05 12:08:37;;;;;;;12.73;3.03;;;18.70;65.40;;;;;;5111681;28;20494;-70
2020/12/05 12:11:41;;;;;;;10.02;2.40;;;18.70;66.10;;;;;;5111183;28;20051;-70
2020/12/05 12:14:45;;;;;;;14.40;2.58;;;18.70;64.90;;;;;;5110860;28;20058;-70
2020/12/05 12:17:49;;;;;;;10.90;2.90;;;18.60;64.50;;;;;;5111999;28;20047;-70
2020/12/05 12:20:53;;;;;;;12.93;2.17;;;18.60;64.80;;;;;;5110839;28;20038;-70
2020/12/05 12:23:59;;;;;;;14.52;2.05;;;18.60;63.90;;;;;;5111529;28;20047;-71
2020/12/05 12:27:03;;;;;;;11.63;2.42;;;18.60;64.10;;;;;;5111554;28;20071;-71
2020/12/05 12:30:08;;;;;;;11.73;2.20;;;18.60;64.50;;;;;;5111970;28;20038;-71
2020/12/05 12:33:12;;;;;;;8.65;2.03;;;18.60;65.20;;;;;;5111331;28;20050;-71
2020/12/05 12:36:17;;;;;;;10.38;1.50;;;18.60;65.30;;;;;;5110889;28;20383;-71
2020/12/05 12:39:21;;;;;;;10.15;2.38;;;18.60;64.90;;;;;;5111464;28;20489;-71
2020/12/05 12:42:27;;;;;;;6.57;2.38;;;18.60;65.70;;;;;;5111844;28;20043;-70
2020/12/05 12:45:32;;;;;;;11.45;2.47;;;18.60;66.10;;;;;;5110943;28;20047;-70
2020/12/05 12:48:38;;;;;;;12.05;1.95;;;18.60;65.90;;;;;;5111367;28;20063;-70
2020/12/05 12:51:42;;;;;;;10.98;2.28;;;18.60;64.80;;;;;;5111565;28;20141;-70
2020/12/05 12:54:46;;;;;;;16.98;3.15;;;18.60;65.10;;;;;;5111138;28;20054;-70
2020/12/05 12:57:51;;;;;;;11.00;2.58;;;18.60;65.80;;;;;;5111359;28;20126;-70
2020/12/05 13:00:57;;;;;;;15.30;2.70;;;18.70;66.40;;;;;;5110544;28;20051;-70
2020/12/05 13:04:02;;;;;;;10.50;2.55;;;18.70;66.20;;;;;;5111376;28;20043;-70
2020/12/05 13:07:06;;;;;;;11.55;2.38;;;18.70;65.70;;;;;;5110507;28;20165;-72
2020/12/05 13:10:10;;;;;;;13.55;2.53;;;18.70;66.70;;;;;;5111142;28;20419;-70
2020/12/05 13:13:14;;;;;;;16.30;2.33;;;18.60;67.10;;;;;;5110993;28;20035;-70
2020/12/05 13:16:20;;;;;;;17.83;2.83;;;18.70;67.90;;;;;;5110613;28;20035;-70
2020/12/05 13:19:24;;;;;;;7.53;1.65;;;18.70;67.70;;;;;;5111100;28;20074;-70
2020/12/05 13:22:28;;;;;;;11.50;2.20;;;18.70;67.20;;;;;;5111373;28;20050;-71
2020/12/05 13:25:32;;;;;;;12.70;2.15;;;18.70;67.20;;;;;;5110994;28;20070;-71
2020/12/05 13:28:36;;;;;;;8.10;2.50;;;18.70;67.50;;;;;;5111343;28;20039;-70
2020/12/05 13:31:40;;;;;;;16.38;3.97;;;18.70;67.50;;;;;;5111329;28;20043;-71
2020/12/05 13:34:43;;;;;;;17.95;7.28;;;18.60;67.50;;;;;;5111214;28;20038;-72
2020/12/05 13:37:47;;;;;;;14.73;3.53;;;18.60;68.60;;;;;;5110660;28;20070;-73
2020/12/05 13:40:51;;;;;;;18.15;3.63;;;18.60;68.50;;;;;;5111072;28;20047;-71
2020/12/05 13:43:59;;;;;;;11.95;3.28;;;18.50;68.80;;;;;;5111139;28;20055;-71
2020/12/05 13:47:05;;;;;;;14.63;4.30;;;18.50;69.00;;;;;;5110614;28;20446;-72
2020/12/05 13:50:09;;;;;;;11.68;3.30;;;18.50;69.70;;;;;;5110906;28;20038;-77
2020/12/05 13:53:14;;;;;;;13.98;3.83;;;18.50;68.80;;;;;;5113805;28;20051;-82
2020/12/05 13:56:18;;;;;;;9.27;3.38;;;18.50;69.00;;;;;;5111295;28;20038;-83
2020/12/05 13:59:23;;;;;;;10.00;2.88;;;18.50;68.80;;;;;;5114493;28;20506;-76
2020/12/05 14:02:28;;;;;;;13.35;3.25;;;18.40;68.90;;;;;;5114497;28;20043;-73
2020/12/05 14:05:32;;;;;;;15.55;3.38;;;18.30;68.90;;;;;;5114469;28;20078;-72
2020/12/05 14:08:37;;;;;;;13.23;4.00;;;18.40;69.10;;;;;;5114783;28;20047;-73
2020/12/05 14:11:41;;;;;;;11.43;3.13;;;18.40;69.30;;;;;;5113607;28;20042;-75
2020/12/05 14:14:44;;;;;;;11.48;3.25;;;18.30;69.10;;;;;;5114611;28;20046;-74
2020/12/05 14:17:49;;;;;;;12.85;3.35;;;18.30;69.20;;;;;;5113734;28;20054;-75
2020/12/05 14:20:53;;;;;;;15.32;3.33;;;18.30;70.30;;;;;;5101382;28;20046;-75
2020/12/05 14:23:58;;;;;;;13.85;2.65;;;18.30;71.20;;;;;;5114093;28;20581;-76
2020/12/05 14:27:02;;;;;;;19.77;2.95;;;18.20;71.70;;;;;;5113236;28;20042;-76
2020/12/05 14:30:06;;;;;;;13.30;3.05;;;18.20;72.10;;;;;;5113154;28;20039;-76
2020/12/05 14:33:16;;;;;;;9.95;2.60;;;18.10;72.60;;;;;;5113272;28;20644;-75
2020/12/05 14:36:23;;;;;;;9.45;2.80;;;18.10;72.70;;;;;;5113493;28;20366;-76
2020/12/05 14:39:28;;;;;;;21.23;3.35;;;18.10;72.50;;;;;;5113017;28;20418;-77
2020/12/05 14:42:32;;;;;;;9.00;2.85;;;18.00;72.60;;;;;;5113844;28;20047;-75
2020/12/05 14:45:36;;;;;;;10.35;3.10;;;18.00;72.50;;;;;;5113720;28;20050;-77
2020/12/05 14:48:40;;;;;;;13.60;3.42;;;18.00;72.60;;;;;;5113315;28;20225;-76
2020/12/05 14:51:44;;;;;;;15.63;4.53;;;18.00;73.10;;;;;;5113553;28;20042;-77
2020/12/05 14:54:48;;;;;;;10.55;3.78;;;18.00;73.30;;;;;;5112779;28;20042;-77
2020/12/05 14:57:52;;;;;;;19.40;4.30;;;17.90;73.30;;;;;;5113461;28;20047;-76
2020/12/05 15:00:56;;;;;;;16.42;3.88;;;17.90;74.00;;;;;;5112588;28;20058;-77
2020/12/05 15:04:00;;;;;;;19.33;5.68;;;17.90;74.10;;;;;;5112495;28;20050;-77
2020/12/05 15:07:04;;;;;;;19.60;4.57;;;17.80;74.60;;;;;;5113473;28;20051;-76
2020/12/05 15:10:08;;;;;;;14.90;4.00;;;17.80;74.30;;;;;;5113174;28;20043;-76
2020/12/05 15:13:12;;;;;;;17.65;3.88;;;17.70;74.70;;;;;;5112158;28;20062;-75
2020/12/05 15:16:16;;;;;;;20.40;4.53;;;17.70;75.20;;;;;;5113137;28;20046;-76
2020/12/05 15:19:20;;;;;;;17.50;4.28;;;17.70;75.60;;;;;;5113028;28;20050;-75
2020/12/05 15:22:24;;;;;;;18.98;4.88;;;17.70;75.80;;;;;;5112767;28;20046;-76
2020/12/05 15:25:28;;;;;;;10.80;5.35;;;17.70;76.00;;;;;;5112636;28;20054;-77
2020/12/05 15:28:32;;;;;;;15.38;4.43;;;17.60;76.20;;;;;;5113029;28;20058;-75
2020/12/05 15:31:36;;;;;;;20.00;5.03;;;17.60;76.10;;;;;;5112896;28;20047;-76
2020/12/05 15:34:40;;;;;;;16.70;5.25;;;17.50;76.00;;;;;;5112425;28;20050;-77
2020/12/05 15:37:44;;;;;;;21.52;4.85;;;17.50;76.30;;;;;;5112553;28;20043;-76
2020/12/05 15:40:48;;;;;;;12.48;4.95;;;17.50;75.90;;;;;;5112603;28;20038;-75
2020/12/05 15:43:52;;;;;;;16.75;4.70;;;17.50;75.60;;;;;;5112455;28;20055;-75
2020/12/05 15:47:00;;;;;;;17.48;4.95;;;17.40;75.10;;;;;;5112211;28;20050;-77
2020/12/05 15:50:04;;;;;;;19.52;5.47;;;17.40;75.10;;;;;;5112356;28;20050;-75
2020/12/05 15:53:09;;;;;;;15.85;5.20;;;17.30;74.90;;;;;;5112268;28;20050;-77
2020/12/05 15:56:16;;;;;;;15.27;5.97;;;17.30;74.80;;;;;;5111374;28;20042;-76
2020/12/05 15:59:20;;;;;;;18.73;6.70;;;17.30;74.80;;;;;;5111281;28;20427;-77